Time;durP1;ratioP1;P1;durP2;ratioP2;P2;SDS_P1;SDS_P2;PMS_P1;PMS_P2;Temp;Humidity;BMP_temperature;BMP_pressure;BME280_temperature;BME280_humidity;BME280_pressure;Samples;Min_cycle;Max_cycle;Signal;HPM_P1;HPM_P2
2022/10/10 00:04:29;;;;;;;9.15;4.93;;;;;;;-147.20;100.00;63046.97;31432194;28;23203;-60
2022/10/10 00:19:30;;;;;;;11.02;5.70;;;;;;;-147.20;100.00;63046.97;31430246;28;20069;-62
2022/10/10 00:34:30;;;;;;;15.48;6.88;;;;;;;-147.20;100.00;63046.97;31430412;28;20036;-61
2022/10/10 00:49:30;;;;;;;13.70;6.97;;;;;;;-147.20;100.00;63046.97;31428834;28;20395;-61
2022/10/10 01:04:38;;;;;;;13.90;7.03;;;;;;;-147.20;100.00;63046.97;31428290;28;20402;-60
2022/10/10 01:19:44;;;;;;;10.55;6.55;;;;;;;-147.20;100.00;63046.97;31432042;28;20386;-61
2022/10/10 01:34:58;;;;;;;11.38;6.85;;;;;;;-147.20;100.00;63046.97;31447447;28;20496;-61
2022/10/10 01:50:06;;;;;;;12.53;7.60;;;;;;;-147.20;100.00;63046.97;31445902;28;20124;-60
2022/10/10 02:05:19;;;;;;;16.17;7.32;;;;;;;-147.20;100.00;63046.97;31444611;28;20058;-61
2022/10/10 02:20:22;;;;;;;15.98;7.85;;;;;;;-147.20;100.00;63046.97;31443253;28;20033;-63
2022/10/10 02:35:30;;;;;;;20.37;9.27;;;;;;;-147.20;100.00;63046.97;31440303;28;20041;-60
2022/10/10 02:50:30;;;;;;;18.30;9.07;;;;;;;-147.20;100.00;63046.97;31438691;28;20053;-61
2022/10/10 03:05:31;;;;;;;17.17;8.00;;;;;;;-147.20;100.00;63046.97;31436837;28;20467;-60
2022/10/10 03:20:31;;;;;;;16.35;8.60;;;;;;;-147.20;100.00;63046.97;31436085;28;20060;-61
2022/10/10 03:35:31;;;;;;;14.27;8.43;;;;;;;-147.20;100.00;63046.97;31433744;28;20041;-60
2022/10/10 03:50:32;;;;;;;20.17;9.60;;;;;;;-147.20;100.00;63046.97;31431897;28;20055;-60
2022/10/10 04:05:37;;;;;;;21.58;10.05;;;;;;;-147.20;100.00;63046.97;31429842;28;20029;-60
2022/10/10 04:20:37;;;;;;;16.48;9.52;;;;;;;-147.20;100.00;63046.97;31427800;28;20067;-61
2022/10/10 04:35:38;;;;;;;20.48;10.57;;;;;;;-147.20;100.00;63046.97;31425769;28;20037;-60
2022/10/10 04:50:39;;;;;;;30.27;12.82;;;;;;;-147.20;100.00;63046.97;31478196;28;20068;-62
2022/10/10 05:05:39;;;;;;;20.17;11.45;;;;;;;-147.20;100.00;63046.97;31545414;28;20025;-63
2022/10/10 05:20:39;;;;;;;25.63;12.48;;;;;;;-147.20;100.00;63046.97;31494814;28;20469;-65
2022/10/10 05:35:40;;;;;;;17.77;10.18;;;;;;;-147.20;100.00;63046.97;31449910;28;20839;-62
2022/10/10 05:50:46;;;;;;;22.25;12.18;;;;;;;4.40;80.04;100734.50;31155662;28;97373;-63
2022/10/10 06:05:50;;;;;;;20.13;10.30;;;;;;;5.29;80.11;100730.31;30955966;28;98725;-60
2022/10/10 06:20:50;;;;;;;18.30;12.07;;;;;;;6.12;79.00;100722.75;30984327;28;97993;-64
2022/10/10 06:35:51;;;;;;;18.92;11.05;;;;;;;7.20;78.31;100717.00;30982267;28;97078;-60
2022/10/10 06:51:11;;;;;;;20.15;11.77;;;;;;;8.03;77.20;100719.31;30953503;28;96690;-62
2022/10/10 07:06:12;;;;;;;19.43;10.93;;;;;;;8.94;76.42;100718.03;30978062;28;97025;-65
2022/10/10 07:21:12;;;;;;;18.50;11.43;;;;;;;10.22;74.53;100705.50;30944669;28;98752;-62
2022/10/10 07:36:13;;;;;;;16.13;10.52;;;;;;;11.87;72.07;100708.84;30975320;28;105572;-64
2022/10/10 07:51:14;;;;;;;15.38;10.15;;;;;;;13.16;67.86;100698.25;30924339;28;96795;-61
2022/10/10 08:06:16;;;;;;;18.97;8.93;;;;;;;14.04;65.08;100693.50;30851650;28;96803;-63
2022/10/10 08:21:16;;;;;;;16.37;10.67;;;;;;;15.76;61.39;100678.19;30849961;28;97336;-62
2022/10/10 08:36:19;;;;;;;11.60;8.00;;;;;;;21.32;53.71;100667.13;30852419;28;98494;-61
2022/10/10 08:51:28;;;;;;;13.27;7.63;;;;;;;-147.20;100.00;63046.97;31412831;28;96719;-61
2022/10/10 09:07:00;;;;;;;9.75;6.63;;;;;;;-147.20;100.00;63046.97;31512179;28;20029;-60
2022/10/10 09:22:08;;;;;;;8.52;7.57;;;;;;;-147.20;100.00;63046.97;31515458;28;21043;-60
2022/10/10 09:37:13;;;;;;;15.23;6.75;;;;;;;-147.20;100.00;63046.97;31481022;28;20158;-61
2022/10/10 09:52:30;;;;;;;14.20;6.97;;;;;;;-147.20;100.00;63046.97;31496886;28;20055;-65
2022/10/10 10:07:32;;;;;;;10.90;6.43;;;;;;;-147.20;100.00;63046.97;31477505;28;20044;-63
2022/10/10 10:22:37;;;;;;;9.37;4.87;;;;;;;-147.20;100.00;63046.97;31501067;28;20283;-65
2022/10/10 10:37:43;;;;;;;11.57;5.20;;;;;;;-147.20;100.00;63046.97;31480288;28;20260;-63
2022/10/10 10:52:58;;;;;;;7.95;4.50;;;;;;;-147.20;100.00;63046.97;31454959;28;20261;-64
2022/10/10 11:08:26;;;;;;;8.05;4.47;;;;;;;-147.20;100.00;63046.97;31492178;28;20060;-65
2022/10/10 11:23:39;;;;;;;12.20;4.80;;;;;;;-147.20;100.00;63046.97;31467190;28;20051;-65
2022/10/10 11:38:46;;;;;;;9.32;4.32;;;;;;;-147.20;100.00;63046.97;31443625;28;20390;-65
2022/10/10 11:53:52;;;;;;;10.25;4.25;;;;;;;-147.20;100.00;63046.97;31450550;28;20036;-65
2022/10/10 12:09:12;;;;;;;9.57;3.60;;;;;;;-147.20;100.00;63046.97;31484737;28;20467;-66
2022/10/10 12:24:13;;;;;;;9.83;3.53;;;;;;;-147.20;100.00;63046.97;31426163;28;20477;-62
2022/10/10 12:39:13;;;;;;;6.00;3.70;;;;;;;-147.20;100.00;63046.97;31424349;28;20335;-62
2022/10/10 12:54:32;;;;;;;7.07;3.95;;;;;;;-147.20;100.00;63046.97;31422436;28;20168;-60
2022/10/10 13:09:34;;;;;;;6.65;3.60;;;;;;;-147.20;100.00;63046.97;31499455;28;20056;-62
2022/10/10 13:24:35;;;;;;;6.50;3.70;;;;;;;-147.20;100.00;63046.97;31561277;28;20398;-60
2022/10/10 13:39:36;;;;;;;12.93;4.13;;;;;;;-147.20;100.00;63046.97;31552511;28;20091;-61
2022/10/10 13:54:45;;;;;;;10.00;6.20;;;;;;;-147.20;100.00;63046.97;31564982;28;20041;-62
2022/10/10 14:10:09;;;;;;;5.63;3.70;;;;;;;-147.20;100.00;63046.97;31554859;28;20040;-61
2022/10/10 14:25:09;;;;;;;6.47;3.90;;;;;;;-147.20;100.00;63046.97;31541728;28;20064;-61
2022/10/10 14:40:19;;;;;;;5.68;3.20;;;;;;;-147.20;100.00;63046.97;31554864;28;22102;-62
2022/10/10 14:55:19;;;;;;;7.60;3.72;;;;;;;-147.20;100.00;63046.97;31559099;28;20103;-62
2022/10/10 15:10:19;;;;;;;4.95;2.80;;;;;;;-147.20;100.00;63046.97;31559475;28;24585;-60
2022/10/10 15:25:20;;;;;;;5.47;3.35;;;;;;;-147.20;100.00;63046.97;31550582;28;20028;-61
2022/10/10 15:40:22;;;;;;;6.20;4.05;;;;;;;-147.20;100.00;63046.97;31502582;28;20045;-61
2022/10/10 15:55:22;;;;;;;7.78;3.95;;;;;;;-147.20;100.00;63046.97;31478867;28;20025;-62
2022/10/10 16:10:22;;;;;;;18.95;8.90;;;;;;;-147.20;100.00;63046.97;31458276;28;20036;-63
2022/10/10 16:25:23;;;;;;;19.25;7.80;;;;;;;-147.20;100.00;63046.97;31541764;28;20857;-62
2022/10/10 16:40:23;;;;;;;25.63;12.75;;;;;;;-147.20;100.00;63046.97;31498201;28;20037;-66
2022/10/10 16:55:23;;;;;;;11.02;6.35;;;;;;;-147.20;100.00;63046.97;31458501;28;29468;-63
2022/10/10 17:10:24;;;;;;;12.15;6.68;;;;;;;-147.20;100.00;63046.97;31462248;28;20025;-63
2022/10/10 17:25:24;;;;;;;11.15;5.70;;;;;;;-147.20;100.00;63046.97;31413763;28;20100;-63
2022/10/10 17:40:25;;;;;;;7.85;5.90;;;;;;;-147.20;100.00;63046.97;31412576;28;20049;-63
2022/10/10 17:55:25;;;;;;;11.25;6.70;;;;;;;-147.20;100.00;63046.97;31411005;28;20080;-63
2022/10/10 18:10:26;;;;;;;12.07;7.38;;;;;;;-147.20;100.00;63046.97;31427900;28;20025;-63
2022/10/10 18:25:26;;;;;;;11.05;6.88;;;;;;;-147.20;100.00;63046.97;31431528;28;20033;-59
2022/10/10 18:40:26;;;;;;;10.48;7.10;;;;;;;-147.20;100.00;63046.97;31527088;28;20186;-67
2022/10/10 18:55:29;;;;;;;11.82;7.60;;;;;;;-147.20;100.00;63046.97;31551976;28;20036;-62
2022/10/10 19:10:29;;;;;;;13.97;7.70;;;;;;;-147.20;100.00;63046.97;31551321;28;20496;-66
2022/10/10 19:25:31;;;;;;;11.05;7.05;;;;;;;-147.20;100.00;63046.97;31551058;28;20044;-66
2022/10/10 19:40:32;;;;;;;14.77;6.90;;;;;;;-147.20;100.00;63046.97;31549089;28;20048;-62
2022/10/10 19:55:33;;;;;;;12.38;7.28;;;;;;;-147.20;100.00;63046.97;31545383;28;20033;-63
2022/10/10 20:10:33;;;;;;;11.55;7.07;;;;;;;-147.20;100.00;63046.97;31422362;28;20830;-65
2022/10/10 20:25:38;;;;;;;12.85;7.35;;;;;;;-147.20;100.00;63046.97;31424491;28;20431;-66
2022/10/10 20:40:43;;;;;;;13.88;7.88;;;;;;;-147.20;100.00;63046.97;31427768;28;20056;-65
2022/10/10 20:55:43;;;;;;;17.42;8.43;;;;;;;-147.20;100.00;63046.97;31427659;28;20044;-67
2022/10/10 21:10:45;;;;;;;19.58;8.43;;;;;;;-147.20;100.00;63046.97;31426543;28;20104;-64
2022/10/10 21:25:46;;;;;;;15.45;9.05;;;;;;;-147.20;100.00;63046.97;31426412;28;20033;-63
2022/10/10 21:40:47;;;;;;;20.52;9.23;;;;;;;-147.20;100.00;63046.97;31468304;28;20127;-63
2022/10/10 21:55:47;;;;;;;13.97;7.30;;;;;;;-147.20;100.00;63046.97;31570877;28;20374;-65
2022/10/10 22:10:47;;;;;;;11.93;7.75;;;;;;;-147.20;100.00;63046.97;31569860;28;20363;-67
2022/10/10 22:25:50;;;;;;;12.43;7.78;;;;;;;12.03;67.28;100392.97;31346964;28;96758;-65
2022/10/10 22:40:50;;;;;;;14.63;8.40;;;;;;;12.10;67.25;100403.78;30990249;28;97315;-64
2022/10/10 22:55:50;;;;;;;15.77;8.60;;;;;;;12.02;67.77;100396.63;30988250;28;96705;-65
2022/10/10 23:10:51;;;;;;;11.13;8.18;;;;;;;12.00;67.33;100409.31;30987658;28;112957;-62
2022/10/10 23:25:51;;;;;;;11.68;8.02;;;;;;;11.69;67.79;100423.44;30987118;28;96731;-63
2022/10/10 23:40:52;;;;;;;12.95;8.00;;;;;;;11.31;68.53;100420.53;30983869;28;113585;-62
2022/10/10 23:55:52;;;;;;;11.93;8.02;;;;;;;11.11;69.50;100428.91;30983415;28;98376;-63
